Terminal Aerodrome Forecast
Issued by NWS

Home | Current Version | Previous Version | Graphics & Text | Print | Product List | Glossary On
Versions: 1 2 3 4 5 6 7 8 9 10 11 12 13 14 15 16
771
FTUS43 KIWX 182336
TAFSBN
TAF
KSBN 182336Z 1900/1924 02006KT 3SM -DZ BR BKN008 OVC016
      TEMPO 1900/1902 1 1/2SM -DZ BR OVC008
     FM190200 01010G17KT 4SM -RASN BR OVC008
     FM190500 01012G20KT 2SM -SN BR OVC006
     FM190900 34011KT P6SM OVC015
     FM191100 35014G20KT P6SM FEW020 SCT200=

USA.gov is the U.S. government's official web portal to all federal, state and local government web resources and services.